Time;durP1;ratioP1;P1;durP2;ratioP2;P2;SDS_P1;SDS_P2;PMS_P1;PMS_P2;Temp;Humidity;BMP_temperature;BMP_pressure;BME280_temperature;BME280_humidity;BME280_pressure;Samples;Min_cycle;Max_cycle;Signal;HPM_P1;HPM_P2
2021/03/01 00:01:05;;;;;;;153.80;11.10;;;3.40;99.90;;;;;;5073848;28;20365;-76
2021/03/01 00:03:31;;;;;;;133.00;11.57;;;3.30;99.90;;;;;;5073623;28;20410;-77
2021/03/01 00:05:57;;;;;;;163.50;10.10;;;3.30;99.90;;;;;;5073170;28;20025;-77
2021/03/01 00:08:22;;;;;;;82.97;7.30;;;3.30;99.90;;;;;;5072476;28;20017;-76
2021/03/01 00:10:48;;;;;;;77.90;7.78;;;3.30;99.90;;;;;;5073417;28;20032;-76
2021/03/01 00:13:14;;;;;;;99.35;8.60;;;3.20;99.90;;;;;;5072473;28;20438;-76
2021/03/01 00:15:40;;;;;;;113.25;8.45;;;3.20;99.90;;;;;;5073076;28;20036;-76
2021/03/01 00:18:06;;;;;;;189.02;11.27;;;3.20;99.90;;;;;;5073426;28;20119;-76
2021/03/01 00:20:31;;;;;;;39.80;7.70;;;3.20;99.90;;;;;;5073667;28;20028;-77
2021/03/01 00:22:57;;;;;;;50.72;7.85;;;3.20;99.90;;;;;;5073093;28;20064;-76
2021/03/01 00:25:23;;;;;;;9.48;5.38;;;3.30;99.90;;;;;;5072806;28;20017;-76
2021/03/01 00:27:48;;;;;;;18.55;5.88;;;3.20;99.90;;;;;;5073276;28;20039;-76
2021/03/01 00:30:14;;;;;;;205.52;10.43;;;3.20;99.90;;;;;;5073458;28;20025;-77
2021/03/01 00:32:40;;;;;;;42.20;6.82;;;3.20;99.90;;;;;;5073160;28;20039;-76
2021/03/01 00:35:07;;;;;;;33.08;6.00;;;3.10;99.90;;;;;;5071330;28;20115;-77
2021/03/01 00:37:33;;;;;;;112.50;7.95;;;3.10;99.90;;;;;;5071827;28;20027;-76
2021/03/01 00:39:59;;;;;;;68.75;7.30;;;3.10;99.90;;;;;;5073190;28;20024;-76
2021/03/01 00:42:24;;;;;;;82.07;8.52;;;3.10;99.90;;;;;;5072865;28;20062;-76
2021/03/01 00:44:50;;;;;;;114.78;8.70;;;3.10;99.90;;;;;;5072420;28;20040;-77
2021/03/01 00:47:16;;;;;;;175.05;10.85;;;3.00;99.90;;;;;;5072885;28;20056;-77
2021/03/01 00:49:41;;;;;;;18.23;6.72;;;3.00;99.90;;;;;;5072985;28;20048;-76
2021/03/01 00:52:07;;;;;;;85.85;9.60;;;3.00;99.90;;;;;;5072851;28;20078;-76
2021/03/01 00:54:32;;;;;;;64.32;8.68;;;3.00;99.90;;;;;;5070900;28;20052;-77
2021/03/01 00:56:58;;;;;;;108.45;11.20;;;3.00;99.90;;;;;;5072639;28;20017;-76
2021/03/01 00:59:26;;;;;;;65.85;8.65;;;3.00;99.90;;;;;;5072776;28;20029;-76
2021/03/01 01:01:51;;;;;;;36.90;7.95;;;3.00;99.90;;;;;;5071241;28;20025;-76
2021/03/01 01:04:17;;;;;;;26.17;6.55;;;3.00;99.90;;;;;;5070619;28;20170;-76
2021/03/01 01:06:42;;;;;;;12.95;5.82;;;3.10;99.90;;;;;;5072575;28;20017;-76
2021/03/01 01:09:08;;;;;;;274.48;13.55;;;3.00;99.90;;;;;;5072495;28;20070;-76
2021/03/01 01:11:33;;;;;;;167.40;10.05;;;3.00;99.90;;;;;;5071018;28;20023;-76
2021/03/01 01:13:59;;;;;;;18.50;6.32;;;3.00;99.90;;;;;;5071853;28;20031;-76
2021/03/01 01:16:25;;;;;;;131.40;11.38;;;2.90;99.90;;;;;;5070885;28;20173;-76
2021/03/01 01:18:51;;;;;;;37.42;8.15;;;2.90;99.90;;;;;;5071422;28;20035;-76
2021/03/01 01:21:16;;;;;;;50.72;7.80;;;2.90;99.90;;;;;;5072250;28;20028;-76
2021/03/01 01:23:42;;;;;;;31.65;8.48;;;2.90;99.90;;;;;;5071747;28;20029;-76
2021/03/01 01:26:07;;;;;;;183.95;10.48;;;3.00;99.90;;;;;;5071937;28;20017;-76
2021/03/01 01:28:33;;;;;;;85.22;8.68;;;3.00;99.90;;;;;;5072129;28;20031;-76
2021/03/01 01:30:58;;;;;;;66.00;8.77;;;2.90;99.90;;;;;;5070835;28;20031;-76
2021/03/01 01:33:24;;;;;;;73.13;10.32;;;2.90;99.90;;;;;;5071954;28;20064;-76
2021/03/01 01:35:49;;;;;;;28.83;8.32;;;3.00;99.90;;;;;;5070527;28;20067;-76
2021/03/01 01:38:15;;;;;;;22.05;8.70;;;3.00;99.90;;;;;;5070908;28;20559;-76
2021/03/01 01:40:41;;;;;;;178.32;10.40;;;2.90;99.90;;;;;;5070627;28;20028;-76
2021/03/01 01:43:06;;;;;;;52.88;8.15;;;2.90;99.90;;;;;;5071845;28;20043;-76
2021/03/01 01:45:32;;;;;;;150.77;12.15;;;2.90;99.90;;;;;;5071118;28;20158;-76
2021/03/01 01:47:58;;;;;;;59.33;9.52;;;3.00;99.90;;;;;;5071957;28;20032;-76
2021/03/01 01:50:26;;;;;;;69.70;11.30;;;3.00;99.90;;;;;;5071938;28;20039;-76
2021/03/01 01:52:54;;;;;;;34.28;9.10;;;3.00;99.90;;;;;;5070590;28;20028;-76
2021/03/01 01:55:20;;;;;;;28.70;9.32;;;3.00;99.90;;;;;;5071108;28;20025;-76
2021/03/01 01:57:46;;;;;;;104.22;9.75;;;3.00;99.90;;;;;;5070898;28;20043;-76
2021/03/01 02:00:36;;;;;;;100.80;10.43;;;3.00;99.90;;;;;;5071548;28;20025;-76
2021/03/01 02:03:20;;;;;;;35.42;8.27;;;2.90;99.90;;;;;;5071242;28;20542;-76
2021/03/01 02:05:48;;;;;;;22.92;8.38;;;3.00;99.90;;;;;;5069778;28;20468;-76
2021/03/01 02:08:24;;;;;;;121.93;11.40;;;3.00;99.90;;;;;;5071679;28;20028;-76
2021/03/01 02:11:10;;;;;;;19.02;7.65;;;3.00;99.90;;;;;;5070021;28;20023;-76
2021/03/01 02:14:06;;;;;;;63.80;10.02;;;3.00;99.90;;;;;;5069902;28;20028;-76
2021/03/01 02:16:35;;;;;;;24.42;8.35;;;2.90;99.90;;;;;;5071457;28;20481;-76
2021/03/01 02:19:02;;;;;;;60.67;9.60;;;2.90;99.90;;;;;;5070136;28;20029;-76
2021/03/01 02:21:28;;;;;;;36.97;8.38;;;2.80;99.90;;;;;;5071165;28;20029;-76
2021/03/01 02:23:53;;;;;;;63.53;10.95;;;2.90;99.90;;;;;;5070810;28;20397;-76
2021/03/01 02:26:25;;;;;;;77.85;10.15;;;2.90;99.90;;;;;;5071539;28;20028;-76
2021/03/01 02:28:54;;;;;;;84.57;10.52;;;2.90;99.90;;;;;;5069888;28;20031;-76
2021/03/01 02:31:23;;;;;;;55.28;9.98;;;2.80;99.90;;;;;;5071288;28;20032;-76
2021/03/01 02:33:52;;;;;;;67.68;8.70;;;2.80;99.90;;;;;;5070641;28;20103;-76
2021/03/01 02:36:27;;;;;;;55.80;7.78;;;2.80;99.90;;;;;;5070033;28;20025;-76
2021/03/01 02:38:55;;;;;;;65.07;9.45;;;2.80;99.90;;;;;;5070131;28;20024;-76
2021/03/01 02:41:22;;;;;;;140.57;10.63;;;2.80;99.90;;;;;;5071308;28;20104;-76
2021/03/01 02:43:50;;;;;;;71.60;8.30;;;2.80;99.90;;;;;;5069040;28;20530;-76
2021/03/01 02:46:16;;;;;;;181.18;12.60;;;2.80;99.90;;;;;;5073506;28;20093;-76
2021/03/01 02:48:42;;;;;;;103.00;10.13;;;2.80;99.90;;;;;;5075285;28;20021;-77
2021/03/01 02:51:10;;;;;;;145.30;10.63;;;2.80;99.90;;;;;;5074980;28;20094;-77
2021/03/01 02:53:37;;;;;;;50.72;7.53;;;2.70;99.90;;;;;;5075000;28;20029;-76
2021/03/01 02:56:04;;;;;;;51.80;8.68;;;2.80;99.90;;;;;;5074993;28;20024;-76
2021/03/01 02:58:32;;;;;;;162.10;10.32;;;2.80;99.90;;;;;;5074804;28;20025;-76
2021/03/01 03:00:59;;;;;;;124.95;9.35;;;2.80;99.90;;;;;;5075023;28;20470;-76
2021/03/01 03:03:26;;;;;;;19.40;6.45;;;2.70;99.90;;;;;;5074940;28;20029;-76
2021/03/01 03:05:53;;;;;;;79.85;8.18;;;2.70;99.90;;;;;;5074077;28;20381;-76
2021/03/01 03:08:19;;;;;;;89.63;9.20;;;2.70;99.90;;;;;;5075059;28;20021;-77
2021/03/01 03:10:46;;;;;;;41.10;8.75;;;2.70;99.90;;;;;;5074678;28;20111;-76
2021/03/01 03:13:12;;;;;;;194.40;11.20;;;2.70;99.90;;;;;;5074518;28;20028;-76
2021/03/01 03:15:40;;;;;;;24.13;7.70;;;2.60;99.90;;;;;;5072816;28;20077;-76
2021/03/01 03:18:09;;;;;;;195.93;14.52;;;2.60;99.90;;;;;;5074525;28;20064;-76
2021/03/01 03:20:35;;;;;;;127.47;10.02;;;2.70;99.90;;;;;;5074424;28;20020;-76
2021/03/01 03:23:01;;;;;;;142.95;11.38;;;2.60;99.90;;;;;;5074557;28;20028;-76
2021/03/01 03:25:27;;;;;;;134.50;10.68;;;2.70;99.90;;;;;;5072663;28;20400;-76
2021/03/01 03:27:52;;;;;;;103.55;9.55;;;2.70;99.90;;;;;;5073005;28;20024;-76
2021/03/01 03:30:24;;;;;;;223.70;12.93;;;2.70;99.90;;;;;;5072802;28;20063;-76
2021/03/01 03:32:50;;;;;;;105.53;9.32;;;2.70;99.90;;;;;;5073495;28;20473;-76
2021/03/01 03:35:16;;;;;;;114.90;9.23;;;2.70;99.90;;;;;;5073328;28;20396;-76
2021/03/01 03:37:57;;;;;;;60.80;10.73;;;2.70;99.90;;;;;;5074352;28;20070;-76
2021/03/01 03:40:25;;;;;;;18.08;6.43;;;2.60;99.90;;;;;;5074370;28;20020;-76
2021/03/01 03:42:51;;;;;;;39.72;7.00;;;2.60;99.90;;;;;;5073972;28;20162;-76
2021/03/01 03:45:19;;;;;;;74.95;7.93;;;2.60;99.90;;;;;;5073609;28;20037;-76
2021/03/01 03:47:49;;;;;;;160.35;10.43;;;2.60;99.90;;;;;;5074065;28;20031;-76
2021/03/01 03:50:15;;;;;;;76.40;8.38;;;2.60;99.90;;;;;;5073916;28;20046;-76
2021/03/01 03:52:46;;;;;;;22.77;5.80;;;2.50;99.90;;;;;;5073873;28;20027;-76
2021/03/01 03:55:19;;;;;;;104.28;7.38;;;2.50;99.90;;;;;;5073441;28;20485;-76
2021/03/01 03:58:00;;;;;;;65.10;7.27;;;2.60;99.90;;;;;;5073478;28;20020;-76
2021/03/01 04:00:29;;;;;;;55.92;5.95;;;2.50;99.90;;;;;;5073910;28;20031;-76
2021/03/01 04:02:59;;;;;;;119.95;7.95;;;2.60;99.90;;;;;;5073885;28;20063;-76
2021/03/01 04:05:26;;;;;;;45.58;7.03;;;2.60;99.90;;;;;;5073278;28;20052;-76
2021/03/01 04:07:53;;;;;;;57.42;6.93;;;2.50;99.90;;;;;;5073876;28;20017;-76
2021/03/01 04:10:19;;;;;;;32.28;7.53;;;2.60;99.90;;;;;;5073608;28;20040;-76
2021/03/01 04:12:48;;;;;;;39.83;7.75;;;2.60;99.90;;;;;;5073773;28;20054;-76
2021/03/01 04:15:15;;;;;;;69.82;8.73;;;2.60;99.90;;;;;;5073103;28;20146;-76
2021/03/01 04:17:43;;;;;;;83.75;9.07;;;2.60;99.90;;;;;;5073339;28;20079;-76
2021/03/01 04:20:14;;;;;;;121.93;9.73;;;2.60;99.90;;;;;;5073578;28;20024;-76
2021/03/01 04:22:42;;;;;;;88.03;7.70;;;2.50;99.90;;;;;;5073373;28;20025;-77
2021/03/01 04:25:08;;;;;;;39.47;6.25;;;2.50;99.90;;;;;;5072875;28;20027;-76
2021/03/01 04:27:37;;;;;;;139.63;9.13;;;2.40;99.90;;;;;;5073463;28;20078;-76
2021/03/01 04:30:07;;;;;;;102.78;9.07;;;2.40;99.90;;;;;;5073399;28;20051;-77
2021/03/01 04:32:36;;;;;;;42.53;6.68;;;2.40;99.90;;;;;;5073518;28;20600;-76
2021/03/01 04:35:04;;;;;;;44.47;5.60;;;2.40;99.90;;;;;;5072673;28;20032;-76
2021/03/01 04:37:30;;;;;;;165.10;9.00;;;2.40;99.90;;;;;;5073264;28;20035;-76
2021/03/01 04:39:56;;;;;;;99.90;7.68;;;2.30;99.90;;;;;;5073227;28;20028;-76
2021/03/01 04:42:23;;;;;;;110.05;8.30;;;2.30;99.90;;;;;;5071747;28;20032;-76
2021/03/01 04:44:49;;;;;;;130.98;8.38;;;2.40;99.90;;;;;;5071400;28;20063;-76
2021/03/01 04:47:15;;;;;;;207.90;8.63;;;2.30;99.90;;;;;;5071757;28;20059;-76
2021/03/01 04:49:43;;;;;;;250.20;12.35;;;2.20;99.90;;;;;;5073115;28;20020;-76
2021/03/01 04:52:13;;;;;;;144.82;9.55;;;2.20;99.90;;;;;;5071734;28;20025;-76
2021/03/01 04:54:40;;;;;;;101.72;7.13;;;2.10;99.90;;;;;;5072223;28;20020;-76
2021/03/01 04:57:07;;;;;;;64.72;5.85;;;2.10;99.90;;;;;;5072850;28;20025;-76
2021/03/01 04:59:33;;;;;;;67.18;7.40;;;2.10;99.90;;;;;;5072720;28;20074;-76
2021/03/01 05:01:59;;;;;;;76.47;5.75;;;2.10;99.90;;;;;;5072660;28;20108;-76
2021/03/01 05:04:25;;;;;;;92.00;6.50;;;2.20;99.90;;;;;;5071645;28;20119;-76
2021/03/01 05:06:51;;;;;;;312.58;13.02;;;2.10;99.90;;;;;;5072657;28;20063;-76
2021/03/01 05:09:18;;;;;;;138.20;8.90;;;2.10;99.90;;;;;;5071574;28;20028;-76
2021/03/01 05:11:45;;;;;;;29.30;4.22;;;2.10;99.90;;;;;;5072366;28;20044;-76
2021/03/01 05:14:11;;;;;;;90.82;7.97;;;2.00;99.90;;;;;;5072034;28;20028;-76
2021/03/01 05:16:36;;;;;;;160.70;9.23;;;2.10;99.90;;;;;;5072297;28;20035;-76
2021/03/01 05:19:03;;;;;;;115.88;8.02;;;2.10;99.90;;;;;;5072460;28;20028;-76
2021/03/01 05:21:28;;;;;;;76.88;6.60;;;2.10;99.90;;;;;;5071051;28;20028;-76
2021/03/01 05:23:54;;;;;;;133.43;8.30;;;2.20;99.90;;;;;;5071616;28;20489;-76
2021/03/01 05:26:20;;;;;;;136.20;8.15;;;2.10;99.90;;;;;;5072314;28;20020;-76
2021/03/01 05:28:46;;;;;;;121.53;8.57;;;2.10;99.90;;;;;;5072273;28;20020;-77
2021/03/01 05:31:14;;;;;;;123.95;9.40;;;2.10;99.90;;;;;;5070840;28;20495;-76
2021/03/01 05:33:40;;;;;;;260.15;14.23;;;2.10;99.90;;;;;;5071807;28;20052;-75
2021/03/01 05:36:06;;;;;;;26.38;5.75;;;2.10;99.90;;;;;;5072244;28;20056;-76
2021/03/01 05:38:32;;;;;;;162.90;10.90;;;2.10;99.90;;;;;;5070825;28;20069;-76
2021/03/01 05:41:00;;;;;;;111.93;10.32;;;2.10;99.90;;;;;;5071855;28;20127;-76
2021/03/01 05:43:28;;;;;;;30.63;7.65;;;2.10;99.90;;;;;;5072001;28;20400;-76
2021/03/01 05:45:54;;;;;;;73.75;10.73;;;2.10;99.90;;;;;;5071334;28;20028;-76
2021/03/01 05:48:25;;;;;;;183.45;12.32;;;2.10;99.90;;;;;;5071952;28;20396;-76
2021/03/01 05:51:01;;;;;;;161.35;13.57;;;2.20;99.90;;;;;;5071816;28;20021;-76
2021/03/01 05:53:32;;;;;;;116.25;12.30;;;2.20;99.90;;;;;;5070509;28;20033;-76
2021/03/01 05:55:59;;;;;;;199.68;15.05;;;2.20;99.90;;;;;;5071277;28;20024;-76
2021/03/01 05:58:26;;;;;;;173.10;11.80;;;2.20;99.90;;;;;;5071787;28;20103;-76
2021/03/01 06:00:58;;;;;;;165.88;12.73;;;2.20;99.90;;;;;;5070328;28;20028;-76
2021/03/01 06:03:24;;;;;;;202.02;13.38;;;2.10;99.90;;;;;;5071738;28;20116;-76
2021/03/01 06:05:52;;;;;;;81.28;10.30;;;2.10;99.90;;;;;;5071033;28;20032;-76
2021/03/01 06:08:19;;;;;;;84.10;10.20;;;2.20;99.90;;;;;;5071611;28;20081;-76
2021/03/01 06:10:44;;;;;;;106.32;11.27;;;2.20;99.90;;;;;;5055569;28;20075;-77
2021/03/01 06:13:10;;;;;;;158.07;11.40;;;2.20;99.90;;;;;;5051577;28;20389;-76
2021/03/01 06:15:37;;;;;;;53.97;8.68;;;2.20;99.90;;;;;;5049645;28;20433;-76
2021/03/01 06:18:05;;;;;;;179.73;12.70;;;2.30;99.90;;;;;;5051446;28;20056;-76
2021/03/01 06:20:30;;;;;;;157.30;11.98;;;2.20;99.90;;;;;;5049823;28;20029;-76
2021/03/01 06:22:57;;;;;;;50.40;9.40;;;2.20;99.90;;;;;;5050087;28;20029;-76
2021/03/01 06:25:22;;;;;;;176.15;11.40;;;2.20;99.90;;;;;;5050805;28;20032;-76
2021/03/01 06:27:59;;;;;;;171.32;10.90;;;2.20;99.90;;;;;;5050216;28;20470;-76
2021/03/01 06:30:29;;;;;;;80.90;7.53;;;2.20;99.90;;;;;;5051309;28;20025;-76
2021/03/01 06:33:13;;;;;;;266.00;17.08;;;2.10;99.90;;;;;;5051371;28;20532;-76
2021/03/01 06:35:46;;;;;;;92.13;8.90;;;2.10;99.90;;;;;;5049325;28;20123;-76
2021/03/01 06:38:30;;;;;;;36.85;8.07;;;2.10;99.90;;;;;;5051456;28;20056;-76
2021/03/01 06:41:13;;;;;;;120.63;11.27;;;2.10;99.90;;;;;;5051311;28;20025;-76
2021/03/01 06:43:51;;;;;;;116.45;9.68;;;2.10;99.90;;;;;;5050788;28;20029;-76
2021/03/01 06:46:17;;;;;;;160.27;14.35;;;2.10;99.90;;;;;;5050044;28;20112;-76
2021/03/01 06:48:42;;;;;;;82.28;8.55;;;2.10;99.90;;;;;;5051359;28;20097;-76
2021/03/01 06:51:09;;;;;;;115.15;11.93;;;2.00;99.90;;;;;;5051175;28;20026;-76
2021/03/01 06:53:35;;;;;;;296.60;15.23;;;2.00;99.90;;;;;;5051163;28;20048;-76
2021/03/01 06:56:07;;;;;;;229.95;12.60;;;1.90;99.90;;;;;;5050702;28;20029;-76
2021/03/01 06:58:36;;;;;;;88.88;7.47;;;1.90;99.90;;;;;;5049902;28;20572;-76
2021/03/01 07:01:21;;;;;;;102.57;9.55;;;1.90;99.90;;;;;;5049811;28;20517;-76
2021/03/01 07:03:49;;;;;;;224.18;14.82;;;1.90;99.90;;;;;;5050515;28;20650;-76
2021/03/01 07:06:16;;;;;;;217.90;12.15;;;1.90;99.90;;;;;;5051131;28;20036;-76
2021/03/01 07:08:49;;;;;;;171.95;11.07;;;1.90;99.90;;;;;;5049779;28;20402;-76
2021/03/01 07:11:29;;;;;;;156.48;8.98;;;1.90;99.90;;;;;;5051008;28;20029;-76
2021/03/01 07:14:04;;;;;;;119.57;9.27;;;1.90;99.90;;;;;;5050354;28;20025;-76
2021/03/01 07:16:48;;;;;;;202.35;12.90;;;1.80;99.90;;;;;;5049621;28;20086;-76
2021/03/01 07:19:15;;;;;;;;;;;1.90;99.90;;;;;;5060778;28;20037;-76
2021/03/01 07:21:42;;;;;;;236.27;12.80;;;1.80;99.90;;;;;;5048503;28;19908;-76
2021/03/01 07:24:08;;;;;;;72.95;9.85;;;1.80;99.90;;;;;;5057114;28;20021;-76
2021/03/01 07:26:35;;;;;;;120.63;8.70;;;1.80;99.90;;;;;;5070723;28;20044;-76
2021/03/01 07:29:10;;;;;;;155.52;10.77;;;1.90;99.90;;;;;;5070895;28;20017;-76
2021/03/01 07:31:40;;;;;;;51.28;8.48;;;1.80;99.90;;;;;;5070838;28;20481;-76
2021/03/01 07:34:06;;;;;;;187.25;13.18;;;1.90;99.90;;;;;;5073468;28;20033;-76
2021/03/01 07:36:33;;;;;;;223.43;15.15;;;1.90;99.90;;;;;;5074424;28;20506;-76
2021/03/01 07:39:01;;;;;;;24.25;7.43;;;2.10;99.90;;;;;;5073159;28;20066;-76
2021/03/01 07:41:27;;;;;;;83.05;8.60;;;2.10;99.90;;;;;;5074266;28;20566;-76
2021/03/01 07:43:54;;;;;;;352.75;19.15;;;2.30;99.90;;;;;;5073481;28;20033;-76
2021/03/01 07:46:29;;;;;;;231.48;15.30;;;2.30;99.90;;;;;;5072979;28;20442;-77
2021/03/01 07:48:55;;;;;;;104.68;9.40;;;2.30;99.90;;;;;;5074182;28;20020;-76
2021/03/01 07:51:39;;;;;;;63.72;7.93;;;2.30;99.90;;;;;;5072854;28;20043;-77
2021/03/01 07:54:05;;;;;;;145.45;11.23;;;2.40;99.90;;;;;;5073536;28;20503;-77
2021/03/01 07:56:30;;;;;;;11.48;6.60;;;2.40;99.90;;;;;;5073983;28;20056;-77
2021/03/01 07:59:07;;;;;;;132.05;9.70;;;2.60;99.90;;;;;;5074034;28;20108;-77
2021/03/01 08:01:34;;;;;;;17.60;7.47;;;2.70;99.90;;;;;;5067683;28;20025;-77
2021/03/01 08:04:00;;;;;;;78.97;11.52;;;2.80;99.90;;;;;;5051707;28;20029;-77
2021/03/01 08:06:55;;;;;;;100.93;9.65;;;2.80;99.90;;;;;;5074459;28;20019;-78
2021/03/01 08:09:47;;;;;;;145.93;10.98;;;2.80;99.90;;;;;;5072302;28;20028;-78
2021/03/01 08:12:34;;;;;;;172.57;13.23;;;2.70;99.90;;;;;;5077938;28;20119;-77
2021/03/01 08:15:00;;;;;;;24.60;6.72;;;2.70;99.90;;;;;;5093031;28;20028;-78
2021/03/01 08:17:26;;;;;;;85.75;8.20;;;2.70;99.90;;;;;;5093639;28;20058;-77
2021/03/01 08:19:56;;;;;;;392.25;19.25;;;2.80;99.90;;;;;;5093693;28;20488;-77
2021/03/01 08:22:23;;;;;;;117.75;8.43;;;2.90;99.90;;;;;;5093622;28;20399;-77
2021/03/01 08:24:49;;;;;;;17.00;6.57;;;2.90;99.90;;;;;;5084498;28;20029;-76
2021/03/01 08:27:27;;;;;;;61.65;8.45;;;3.10;99.90;;;;;;5071683;28;20023;-78
2021/03/01 08:30:22;;;;;;;126.15;9.15;;;3.10;99.90;;;;;;5073131;28;20036;-78
2021/03/01 08:33:10;;;;;;;124.63;10.32;;;3.00;99.90;;;;;;5072328;28;20100;-77
2021/03/01 08:35:43;;;;;;;13.00;6.55;;;3.00;99.90;;;;;;5072673;28;20028;-78
2021/03/01 08:38:11;;;;;;;135.25;11.02;;;3.30;99.90;;;;;;5071837;28;20028;-77
2021/03/01 08:40:49;;;;;;;124.35;9.57;;;3.30;99.90;;;;;;5072870;28;20029;-77
2021/03/01 08:43:34;;;;;;;169.57;11.07;;;3.30;99.90;;;;;;5072813;28;20389;-77
2021/03/01 08:45:59;;;;;;;42.42;7.68;;;3.30;99.90;;;;;;5071345;28;20565;-77
2021/03/01 08:48:26;;;;;;;22.85;8.35;;;3.40;99.90;;;;;;5067794;28;20036;-77
2021/03/01 08:50:53;;;;;;;56.13;9.38;;;3.50;99.90;;;;;;5070490;28;20022;-77
2021/03/01 08:53:27;;;;;;;17.98;6.60;;;3.60;99.90;;;;;;5071537;28;20028;-77
2021/03/01 08:55:52;;;;;;;;;;;3.70;99.90;;;;;;5072505;28;20480;-78
2021/03/01 08:58:19;;;;;;;37.67;6.97;;;3.80;99.90;;;;;;5071429;28;19940;-78
2021/03/01 09:00:52;;;;;;;12.73;7.47;;;3.80;99.90;;;;;;5072565;28;20108;-77
2021/03/01 09:03:21;;;;;;;70.88;8.23;;;4.00;99.90;;;;;;5072582;28;20055;-77
2021/03/01 09:05:49;;;;;;;55.03;8.15;;;4.00;99.90;;;;;;5075987;28;20409;-77
2021/03/01 09:08:30;;;;;;;158.27;9.70;;;4.10;99.90;;;;;;5074760;28;20036;-77
2021/03/01 09:10:57;;;;;;;153.15;10.15;;;4.20;99.90;;;;;;5054699;28;20565;-78
2021/03/01 09:13:24;;;;;;;89.82;9.20;;;4.10;99.90;;;;;;5052533;28;20029;-78
2021/03/01 09:15:50;;;;;;;89.22;10.45;;;4.00;99.90;;;;;;5050460;28;20497;-78
2021/03/01 09:18:16;;;;;;;27.38;7.93;;;4.10;99.90;;;;;;5051183;28;20045;-78
2021/03/01 09:20:54;;;;;;;210.48;12.48;;;4.30;99.90;;;;;;5052273;28;20025;-78
2021/03/01 09:23:38;;;;;;;10.13;6.60;;;4.40;99.90;;;;;;5052362;28;20034;-78
2021/03/01 09:26:05;;;;;;;13.05;6.72;;;4.50;99.90;;;;;;5050520;28;20032;-77
2021/03/01 09:28:34;;;;;;;10.40;6.47;;;4.50;99.90;;;;;;5051056;28;20021;-77
2021/03/01 09:31:11;;;;;;;17.67;5.80;;;4.60;99.90;;;;;;5052135;28;20032;-76
2021/03/01 09:33:38;;;;;;;11.05;7.40;;;4.60;99.90;;;;;;5052091;28;20389;-78
2021/03/01 09:36:05;;;;;;;220.85;12.23;;;4.50;99.90;;;;;;5051677;28;20512;-77
2021/03/01 09:38:31;;;;;;;139.80;11.05;;;4.50;99.90;;;;;;5051987;28;20040;-76
2021/03/01 09:41:02;;;;;;;82.40;10.05;;;4.50;99.90;;;;;;5051856;28;20053;-76
2021/03/01 09:43:28;;;;;;;169.52;12.40;;;4.50;99.90;;;;;;5052002;28;20032;-77
2021/03/01 09:45:55;;;;;;;57.55;7.90;;;4.40;99.90;;;;;;5051449;28;20096;-77
2021/03/01 09:48:21;;;;;;;185.18;10.00;;;4.50;99.90;;;;;;5062614;28;20078;-76
2021/03/01 09:50:47;;;;;;;9.20;6.45;;;4.50;99.90;;;;;;5071662;28;20500;-77
2021/03/01 09:53:15;;;;;;;98.05;8.95;;;4.50;99.90;;;;;;5070156;28;20024;-76
2021/03/01 09:55:42;;;;;;;17.63;6.35;;;4.50;99.90;;;;;;5069750;28;20032;-77
2021/03/01 09:58:27;;;;;;;118.20;9.27;;;4.70;99.90;;;;;;5071575;28;20540;-77
2021/03/01 10:01:05;;;;;;;115.50;9.00;;;4.70;99.90;;;;;;5071184;28;20119;-77
2021/03/01 10:03:39;;;;;;;113.00;7.93;;;4.70;99.90;;;;;;5070136;28;20031;-77
2021/03/01 10:06:05;;;;;;;191.65;9.73;;;4.70;99.90;;;;;;5071268;28;20025;-77
2021/03/01 10:08:32;;;;;;;17.67;5.93;;;4.80;99.90;;;;;;5071417;28;20028;-77
2021/03/01 10:10:58;;;;;;;47.63;6.63;;;4.90;99.90;;;;;;5077176;28;20107;-77
2021/03/01 10:13:35;;;;;;;23.52;6.10;;;5.10;99.90;;;;;;5066911;28;20115;-77
2021/03/01 10:16:02;;;;;;;63.28;7.28;;;5.10;99.90;;;;;;5050811;28;20029;-76
2021/03/01 10:18:32;;;;;;;6.38;5.07;;;5.10;99.90;;;;;;5051236;28;20063;-77
2021/03/01 10:21:03;;;;;;;7.72;4.28;;;5.20;99.90;;;;;;5064225;28;20042;-77
2021/03/01 10:23:35;;;;;;;35.33;5.88;;;5.30;99.90;;;;;;5071388;28;20048;-79
2021/03/01 10:26:18;;;;;;;12.57;6.22;;;5.40;99.90;;;;;;5052051;28;20025;-77
2021/03/01 10:29:00;;;;;;;24.27;6.68;;;5.50;99.90;;;;;;5051100;28;20025;-77
2021/03/01 10:31:32;;;;;;;8.43;5.60;;;5.60;99.90;;;;;;5051931;28;20492;-77
2021/03/01 10:34:01;;;;;;;10.57;5.03;;;5.90;99.90;;;;;;5049447;28;20037;-77
2021/03/01 10:36:40;;;;;;;13.82;6.20;;;6.00;99.90;;;;;;5051532;28;20427;-77
2021/03/01 10:39:08;;;;;;;7.93;5.70;;;5.70;99.90;;;;;;5052477;28;20048;-77
2021/03/01 10:41:40;;;;;;;7.97;4.53;;;6.00;99.90;;;;;;5069868;28;20032;-76
2021/03/01 10:44:08;;;;;;;12.90;5.87;;;6.00;99.90;;;;;;5089657;28;20059;-77
2021/03/01 10:46:47;;;;;;;6.65;4.80;;;6.00;99.90;;;;;;5091429;28;20020;-76
2021/03/01 10:49:16;;;;;;;9.35;5.50;;;6.10;99.90;;;;;;5069855;28;20017;-77
2021/03/01 10:51:42;;;;;;;8.13;5.07;;;6.10;99.90;;;;;;5051153;28;20022;-77
2021/03/01 10:54:09;;;;;;;7.22;4.65;;;6.20;99.90;;;;;;5050781;28;20029;-77
2021/03/01 10:56:35;;;;;;;11.27;5.10;;;6.20;99.90;;;;;;5050981;28;20090;-77
2021/03/01 10:59:00;;;;;;;12.98;6.25;;;6.10;99.90;;;;;;5056832;28;20465;-77
2021/03/01 11:01:33;;;;;;;7.30;5.20;;;6.10;99.90;;;;;;5070995;28;20079;-77
2021/03/01 11:03:59;;;;;;;6.43;4.35;;;6.40;99.90;;;;;;5070008;28;20122;-77
2021/03/01 11:06:24;;;;;;;6.72;4.90;;;6.30;99.90;;;;;;5071106;28;20424;-77
2021/03/01 11:08:50;;;;;;;8.77;5.57;;;6.30;99.90;;;;;;5071903;28;20025;-77
2021/03/01 11:11:16;;;;;;;6.68;4.75;;;6.50;99.90;;;;;;5072616;28;20089;-77
2021/03/01 11:13:41;;;;;;;7.53;5.00;;;6.70;99.90;;;;;;5072986;28;20029;-77
2021/03/01 11:16:07;;;;;;;6.55;5.22;;;6.60;99.90;;;;;;5074230;28;20115;-77
2021/03/01 11:18:32;;;;;;;8.82;5.53;;;6.60;99.90;;;;;;5073015;28;20400;-77
2021/03/01 11:20:58;;;;;;;7.90;5.35;;;6.50;99.90;;;;;;5073399;28;20566;-77
2021/03/01 11:23:23;;;;;;;8.90;5.97;;;6.60;99.90;;;;;;5074493;28;20029;-76
2021/03/01 11:25:49;;;;;;;15.50;6.72;;;6.80;99.90;;;;;;5071850;28;20482;-77
2021/03/01 11:28:14;;;;;;;13.27;7.30;;;6.80;99.90;;;;;;5074084;28;20457;-77
2021/03/01 11:30:40;;;;;;;10.85;5.90;;;6.90;99.90;;;;;;5073133;28;20508;-76
2021/03/01 11:33:07;;;;;;;10.90;6.75;;;6.80;99.90;;;;;;5074244;28;20024;-77
2021/03/01 11:35:33;;;;;;;10.65;6.68;;;6.80;99.90;;;;;;5073278;28;20029;-77
2021/03/01 11:37:59;;;;;;;13.65;7.32;;;6.70;99.90;;;;;;5072709;28;20074;-77
2021/03/01 11:40:24;;;;;;;12.40;7.25;;;6.40;99.90;;;;;;5074110;28;20037;-77
2021/03/01 11:42:50;;;;;;;15.25;8.23;;;6.50;99.90;;;;;;5073910;28;20481;-77
2021/03/01 11:45:15;;;;;;;12.15;7.82;;;6.70;99.90;;;;;;5073350;28;20037;-76
2021/03/01 11:47:41;;;;;;;12.10;8.07;;;6.60;99.90;;;;;;5072940;28;20053;-77
2021/03/01 11:50:07;;;;;;;11.98;7.93;;;6.50;99.90;;;;;;5072825;28;20020;-76
2021/03/01 11:52:33;;;;;;;13.32;8.65;;;6.40;99.90;;;;;;5073852;28;20028;-77
2021/03/01 11:54:58;;;;;;;11.50;8.25;;;6.70;99.90;;;;;;5073157;28;20025;-76
2021/03/01 11:57:27;;;;;;;13.00;8.05;;;6.90;99.90;;;;;;5072408;28;20059;-77
2021/03/01 11:59:53;;;;;;;11.32;7.53;;;6.90;99.90;;;;;;5073896;28;20027;-76
2021/03/01 12:02:18;;;;;;;10.30;6.60;;;7.10;99.90;;;;;;5073613;28;20021;-77
2021/03/01 12:04:44;;;;;;;12.07;7.72;;;7.00;99.90;;;;;;5069792;28;20036;-76
2021/03/01 12:07:09;;;;;;;13.30;7.60;;;7.00;99.90;;;;;;5054075;28;20100;-78
2021/03/01 12:09:35;;;;;;;10.38;7.05;;;7.30;99.90;;;;;;5054811;28;20474;-77
2021/03/01 12:12:00;;;;;;;21.08;10.98;;;7.50;99.90;;;;;;5052314;28;20707;-78
2021/03/01 12:14:26;;;;;;;30.63;20.48;;;7.60;99.90;;;;;;5053041;28;20091;-77
2021/03/01 12:16:51;;;;;;;22.05;15.82;;;7.70;99.90;;;;;;5068970;28;20040;-77
2021/03/01 12:19:17;;;;;;;36.17;25.73;;;7.70;99.90;;;;;;5063314;28;20051;-77
2021/03/01 12:21:42;;;;;;;13.18;7.90;;;7.70;99.90;;;;;;5072288;28;20028;-76
2021/03/01 12:24:09;;;;;;;10.40;7.38;;;7.60;99.90;;;;;;5071881;28;20097;-77
2021/03/01 12:26:35;;;;;;;12.57;7.53;;;7.70;99.90;;;;;;5072237;28;20021;-77
2021/03/01 12:29:01;;;;;;;11.10;7.30;;;7.80;99.90;;;;;;5073066;28;20074;-77
2021/03/01 12:31:26;;;;;;;11.40;7.10;;;7.70;99.90;;;;;;5073138;28;20032;-77
2021/03/01 12:33:52;;;;;;;11.02;6.70;;;7.60;99.90;;;;;;5072692;28;20490;-76
2021/03/01 12:36:19;;;;;;;16.27;7.57;;;7.70;99.90;;;;;;5055965;28;20037;-77
2021/03/01 12:38:45;;;;;;;9.30;6.70;;;7.80;99.90;;;;;;5052992;28;20420;-77
2021/03/01 12:41:12;;;;;;;9.43;6.95;;;7.90;99.90;;;;;;5053518;28;20388;-77
2021/03/01 12:43:37;;;;;;;14.80;8.40;;;7.90;99.90;;;;;;5072700;28;20028;-77
2021/03/01 12:46:03;;;;;;;17.30;10.57;;;8.40;99.90;;;;;;5071599;28;20035;-77
2021/03/01 12:48:28;;;;;;;10.07;6.45;;;8.60;99.90;;;;;;5072723;28;20392;-77